sensor_id;sensor_type;location;lat;lon;timestamp;temperature;humidity
29093;DHT22;16167;48.768;14.984;2022-12-15T00:01:58;-1.80;61.00
29093;DHT22;16167;48.768;14.984;2022-12-15T00:04:43;-1.80;62.70
29093;DHT22;16167;48.768;14.984;2022-12-15T00:07:29;-1.80;63.00
29093;DHT22;16167;48.768;14.984;2022-12-15T00:10:16;-1.80;64.00
29093;DHT22;16167;48.768;14.984;2022-12-15T00:13:02;-1.80;63.70
29093;DHT22;16167;48.768;14.984;2022-12-15T00:15:47;-1.80;62.80
29093;DHT22;16167;48.768;14.984;2022-12-15T00:18:33;-1.90;60.50
29093;DHT22;16167;48.768;14.984;2022-12-15T00:21:18;-1.90;61.30
29093;DHT22;16167;48.768;14.984;2022-12-15T00:24:04;-1.90;62.20
29093;DHT22;16167;48.768;14.984;2022-12-15T00:26:51;-1.90;65.10
29093;DHT22;16167;48.768;14.984;2022-12-15T00:29:37;-1.90;62.00
29093;DHT22;16167;48.768;14.984;2022-12-15T00:32:22;-1.90;64.10
29093;DHT22;16167;48.768;14.984;2022-12-15T00:35:07;-1.90;65.30
29093;DHT22;16167;48.768;14.984;2022-12-15T00:37:53;-1.90;65.80
29093;DHT22;16167;48.768;14.984;2022-12-15T00:40:38;-2.00;67.80
29093;DHT22;16167;48.768;14.984;2022-12-15T00:43:08;-2.00;70.90
29093;DHT22;16167;48.768;14.984;2022-12-15T00:45:37;-2.00;76.00
29093;DHT22;16167;48.768;14.984;2022-12-15T00:48:23;-2.00;73.90
29093;DHT22;16167;48.768;14.984;2022-12-15T00:50:51;-2.00;73.90
29093;DHT22;16167;48.768;14.984;2022-12-15T00:53:18;-2.00;72.60
29093;DHT22;16167;48.768;14.984;2022-12-15T00:56:03;-2.00;71.80
29093;DHT22;16167;48.768;14.984;2022-12-15T00:58:50;-2.00;70.40
29093;DHT22;16167;48.768;14.984;2022-12-15T01:01:36;-2.00;69.60
29093;DHT22;16167;48.768;14.984;2022-12-15T01:04:21;-2.00;70.50
29093;DHT22;16167;48.768;14.984;2022-12-15T01:07:07;-2.00;65.40
29093;DHT22;16167;48.768;14.984;2022-12-15T01:09:52;-1.90;57.50
29093;DHT22;16167;48.768;14.984;2022-12-15T01:12:38;-2.00;57.40
29093;DHT22;16167;48.768;14.984;2022-12-15T01:15:24;-2.00;58.90
29093;DHT22;16167;48.768;14.984;2022-12-15T01:18:10;-2.00;60.50
29093;DHT22;16167;48.768;14.984;2022-12-15T01:20:56;-2.00;60.60
29093;DHT22;16167;48.768;14.984;2022-12-15T01:23:24;-2.00;60.10
29093;DHT22;16167;48.768;14.984;2022-12-15T01:25:52;-2.00;65.50
29093;DHT22;16167;48.768;14.984;2022-12-15T01:28:20;-2.00;62.50
29093;DHT22;16167;48.768;14.984;2022-12-15T01:30:50;-2.00;64.00
29093;DHT22;16167;48.768;14.984;2022-12-15T01:33:19;-2.00;61.60
29093;DHT22;16167;48.768;14.984;2022-12-15T01:35:53;-2.00;60.80
29093;DHT22;16167;48.768;14.984;2022-12-15T01:38:21;-2.00;63.70
29093;DHT22;16167;48.768;14.984;2022-12-15T01:40:50;-2.00;59.10
29093;DHT22;16167;48.768;14.984;2022-12-15T01:43:18;-2.00;59.70
29093;DHT22;16167;48.768;14.984;2022-12-15T01:48:37;-2.00;64.20
29093;DHT22;16167;48.768;14.984;2022-12-15T01:51:10;-2.00;64.40
29093;DHT22;16167;48.768;14.984;2022-12-15T01:53:41;-2.00;64.10
29093;DHT22;16167;48.768;14.984;2022-12-15T01:56:10;-2.00;62.10
29093;DHT22;16167;48.768;14.984;2022-12-15T01:58:39;-2.00;61.80
29093;DHT22;16167;48.768;14.984;2022-12-15T02:01:08;-2.00;59.10
29093;DHT22;16167;48.768;14.984;2022-12-15T02:03:38;-2.00;60.70
29093;DHT22;16167;48.768;14.984;2022-12-15T02:06:06;-2.00;59.50
29093;DHT22;16167;48.768;14.984;2022-12-15T02:08:34;-2.00;61.60
29093;DHT22;16167;48.768;14.984;2022-12-15T02:11:07;-2.00;60.40
29093;DHT22;16167;48.768;14.984;2022-12-15T02:13:38;-2.00;59.00
29093;DHT22;16167;48.768;14.984;2022-12-15T02:16:16;-2.00;64.40
29093;DHT22;16167;48.768;14.984;2022-12-15T02:18:49;-2.00;60.80
29093;DHT22;16167;48.768;14.984;2022-12-15T02:21:22;-2.00;58.60
29093;DHT22;16167;48.768;14.984;2022-12-15T02:24:05;-2.00;58.60
29093;DHT22;16167;48.768;14.984;2022-12-15T02:26:48;-2.00;58.20
29093;DHT22;16167;48.768;14.984;2022-12-15T02:29:27;-2.00;54.90
29093;DHT22;16167;48.768;14.984;2022-12-15T02:31:58;-2.00;54.90
29093;DHT22;16167;48.768;14.984;2022-12-15T02:34:29;-2.00;56.40
29093;DHT22;16167;48.768;14.984;2022-12-15T02:37:00;-2.00;55.60
29093;DHT22;16167;48.768;14.984;2022-12-15T02:39:30;-2.00;55.60
29093;DHT22;16167;48.768;14.984;2022-12-15T02:41:58;-2.00;55.70
29093;DHT22;16167;48.768;14.984;2022-12-15T02:44:27;-2.00;56.30
29093;DHT22;16167;48.768;14.984;2022-12-15T02:47:02;-2.00;55.80
29093;DHT22;16167;48.768;14.984;2022-12-15T02:49:34;-2.00;53.80
29093;DHT22;16167;48.768;14.984;2022-12-15T02:52:08;-2.00;53.50
29093;DHT22;16167;48.768;14.984;2022-12-15T02:54:43;-2.00;58.30
29093;DHT22;16167;48.768;14.984;2022-12-15T02:57:14;-2.00;58.70
29093;DHT22;16167;48.768;14.984;2022-12-15T02:59:45;-2.00;61.80
29093;DHT22;16167;48.768;14.984;2022-12-15T03:02:23;-2.00;61.20
29093;DHT22;16167;48.768;14.984;2022-12-15T03:04:52;-2.00;59.10
29093;DHT22;16167;48.768;14.984;2022-12-15T03:07:21;-2.00;58.70
29093;DHT22;16167;48.768;14.984;2022-12-15T03:09:49;-2.00;59.80
29093;DHT22;16167;48.768;14.984;2022-12-15T03:12:17;-2.10;58.00
29093;DHT22;16167;48.768;14.984;2022-12-15T03:14:45;-2.10;59.00
29093;DHT22;16167;48.768;14.984;2022-12-15T03:17:13;-2.00;59.60
29093;DHT22;16167;48.768;14.984;2022-12-15T03:19:43;-2.10;58.40
29093;DHT22;16167;48.768;14.984;2022-12-15T03:22:15;-2.10;57.80
29093;DHT22;16167;48.768;14.984;2022-12-15T03:24:43;-2.10;56.80
29093;DHT22;16167;48.768;14.984;2022-12-15T03:27:11;-2.10;55.00
29093;DHT22;16167;48.768;14.984;2022-12-15T03:29:39;-2.10;53.60
29093;DHT22;16167;48.768;14.984;2022-12-15T03:32:07;-2.00;52.40
29093;DHT22;16167;48.768;14.984;2022-12-15T03:34:35;-2.10;51.50
29093;DHT22;16167;48.768;14.984;2022-12-15T03:37:05;-2.00;52.30
29093;DHT22;16167;48.768;14.984;2022-12-15T03:39:33;-2.00;50.20
29093;DHT22;16167;48.768;14.984;2022-12-15T03:42:01;-2.10;53.30
29093;DHT22;16167;48.768;14.984;2022-12-15T03:44:29;-2.10;51.80
29093;DHT22;16167;48.768;14.984;2022-12-15T03:46:57;-2.10;50.20
29093;DHT22;16167;48.768;14.984;2022-12-15T03:49:29;-2.10;50.60
29093;DHT22;16167;48.768;14.984;2022-12-15T03:51:57;-2.10;53.20
29093;DHT22;16167;48.768;14.984;2022-12-15T03:54:26;-2.20;53.30
29093;DHT22;16167;48.768;14.984;2022-12-15T03:56:54;-2.20;55.30
29093;DHT22;16167;48.768;14.984;2022-12-15T03:59:22;-2.20;58.00
29093;DHT22;16167;48.768;14.984;2022-12-15T04:01:50;-2.20;58.30
29093;DHT22;16167;48.768;14.984;2022-12-15T04:04:18;-2.20;62.00
29093;DHT22;16167;48.768;14.984;2022-12-15T04:06:46;-2.20;64.30
29093;DHT22;16167;48.768;14.984;2022-12-15T04:09:14;-2.20;64.10
29093;DHT22;16167;48.768;14.984;2022-12-15T04:11:44;-2.20;65.20
29093;DHT22;16167;48.768;14.984;2022-12-15T04:14:12;-2.20;65.10
29093;DHT22;16167;48.768;14.984;2022-12-15T04:16:40;-2.20;64.60
29093;DHT22;16167;48.768;14.984;2022-12-15T04:19:08;-2.20;64.20
29093;DHT22;16167;48.768;14.984;2022-12-15T04:21:54;-2.20;66.80
29093;DHT22;16167;48.768;14.984;2022-12-15T04:24:23;-2.20;64.00
29093;DHT22;16167;48.768;14.984;2022-12-15T04:27:10;-2.20;65.50
29093;DHT22;16167;48.768;14.984;2022-12-15T04:29:55;-2.20;68.20
29093;DHT22;16167;48.768;14.984;2022-12-15T04:32:41;-2.20;70.70
29093;DHT22;16167;48.768;14.984;2022-12-15T04:35:26;-2.20;72.80
29093;DHT22;16167;48.768;14.984;2022-12-15T04:38:15;-2.20;69.20
29093;DHT22;16167;48.768;14.984;2022-12-15T04:41:01;-2.10;61.70
29093;DHT22;16167;48.768;14.984;2022-12-15T04:43:47;-2.10;60.50
29093;DHT22;16167;48.768;14.984;2022-12-15T04:46:33;-2.20;61.30
29093;DHT22;16167;48.768;14.984;2022-12-15T04:49:19;-2.20;60.00
29093;DHT22;16167;48.768;14.984;2022-12-15T04:52:04;-2.20;59.80
29093;DHT22;16167;48.768;14.984;2022-12-15T04:54:49;-2.20;63.50
29093;DHT22;16167;48.768;14.984;2022-12-15T04:57:35;-2.20;59.30
29093;DHT22;16167;48.768;14.984;2022-12-15T05:00:21;-2.20;61.70
29093;DHT22;16167;48.768;14.984;2022-12-15T05:03:07;-2.20;61.30
29093;DHT22;16167;48.768;14.984;2022-12-15T05:05:52;-2.20;61.50
29093;DHT22;16167;48.768;14.984;2022-12-15T05:08:38;-2.20;56.50
29093;DHT22;16167;48.768;14.984;2022-12-15T05:11:23;-2.20;57.70
29093;DHT22;16167;48.768;14.984;2022-12-15T05:14:08;-2.20;55.80
29093;DHT22;16167;48.768;14.984;2022-12-15T05:16:55;-2.20;53.90
29093;DHT22;16167;48.768;14.984;2022-12-15T05:19:41;-2.20;55.00
29093;DHT22;16167;48.768;14.984;2022-12-15T05:22:26;-2.20;54.00
29093;DHT22;16167;48.768;14.984;2022-12-15T05:25:11;-2.20;46.70
29093;DHT22;16167;48.768;14.984;2022-12-15T05:27:57;-2.30;51.90
29093;DHT22;16167;48.768;14.984;2022-12-15T05:30:43;-2.30;52.40
29093;DHT22;16167;48.768;14.984;2022-12-15T05:33:30;-2.20;51.10
29093;DHT22;16167;48.768;14.984;2022-12-15T05:35:59;-2.30;53.20
29093;DHT22;16167;48.768;14.984;2022-12-15T05:38:27;-2.20;51.40
29093;DHT22;16167;48.768;14.984;2022-12-15T05:40:55;-2.20;51.10
29093;DHT22;16167;48.768;14.984;2022-12-15T05:43:24;-2.20;52.00
29093;DHT22;16167;48.768;14.984;2022-12-15T05:45:52;-2.20;51.10
29093;DHT22;16167;48.768;14.984;2022-12-15T05:48:20;-2.20;53.80
29093;DHT22;16167;48.768;14.984;2022-12-15T05:50:50;-2.20;55.70
29093;DHT22;16167;48.768;14.984;2022-12-15T05:53:18;-2.20;54.90
29093;DHT22;16167;48.768;14.984;2022-12-15T05:55:46;-2.30;57.90
29093;DHT22;16167;48.768;14.984;2022-12-15T05:58:14;-2.30;56.20
29093;DHT22;16167;48.768;14.984;2022-12-15T06:00:42;-2.20;57.30
29093;DHT22;16167;48.768;14.984;2022-12-15T06:03:10;-2.30;59.40
29093;DHT22;16167;48.768;14.984;2022-12-15T06:05:39;-2.30;59.40
29093;DHT22;16167;48.768;14.984;2022-12-15T06:08:08;-2.30;62.00
29093;DHT22;16167;48.768;14.984;2022-12-15T06:10:36;-2.30;60.60
29093;DHT22;16167;48.768;14.984;2022-12-15T06:13:05;-2.30;60.60
29093;DHT22;16167;48.768;14.984;2022-12-15T06:15:33;-2.30;62.30
29093;DHT22;16167;48.768;14.984;2022-12-15T06:18:01;-2.30;62.90
29093;DHT22;16167;48.768;14.984;2022-12-15T06:20:29;-2.30;64.80
29093;DHT22;16167;48.768;14.984;2022-12-15T06:22:57;-2.30;60.80
29093;DHT22;16167;48.768;14.984;2022-12-15T06:25:26;-2.30;62.30
29093;DHT22;16167;48.768;14.984;2022-12-15T06:27:54;-2.40;61.20
29093;DHT22;16167;48.768;14.984;2022-12-15T06:30:27;-2.40;59.60
29093;DHT22;16167;48.768;14.984;2022-12-15T06:32:55;-2.30;53.10
29093;DHT22;16167;48.768;14.984;2022-12-15T06:35:23;-2.40;51.50
29093;DHT22;16167;48.768;14.984;2022-12-15T06:37:51;-2.40;53.10
29093;DHT22;16167;48.768;14.984;2022-12-15T06:40:19;-2.40;53.90
29093;DHT22;16167;48.768;14.984;2022-12-15T06:42:48;-2.40;56.50
29093;DHT22;16167;48.768;14.984;2022-12-15T06:45:16;-2.40;57.10
29093;DHT22;16167;48.768;14.984;2022-12-15T06:47:45;-2.40;53.30
29093;DHT22;16167;48.768;14.984;2022-12-15T06:50:14;-2.40;53.60
29093;DHT22;16167;48.768;14.984;2022-12-15T06:52:42;-2.40;52.30
29093;DHT22;16167;48.768;14.984;2022-12-15T06:55:10;-2.40;52.00
29093;DHT22;16167;48.768;14.984;2022-12-15T06:57:39;-2.40;45.90
29093;DHT22;16167;48.768;14.984;2022-12-15T07:00:09;-2.50;49.50
29093;DHT22;16167;48.768;14.984;2022-12-15T07:02:37;-2.40;51.00
29093;DHT22;16167;48.768;14.984;2022-12-15T07:05:07;-2.50;52.30
29093;DHT22;16167;48.768;14.984;2022-12-15T07:07:35;-2.50;55.40
29093;DHT22;16167;48.768;14.984;2022-12-15T07:10:03;-2.50;56.20
29093;DHT22;16167;48.768;14.984;2022-12-15T07:12:31;-2.50;55.30
29093;DHT22;16167;48.768;14.984;2022-12-15T07:14:59;-2.40;55.30
29093;DHT22;16167;48.768;14.984;2022-12-15T07:17:29;-2.40;53.40
29093;DHT22;16167;48.768;14.984;2022-12-15T07:19:56;-2.40;55.10
29093;DHT22;16167;48.768;14.984;2022-12-15T07:22:26;-2.30;57.90
29093;DHT22;16167;48.768;14.984;2022-12-15T07:24:54;-2.30;54.20
29093;DHT22;16167;48.768;14.984;2022-12-15T07:27:22;-2.20;51.60
29093;DHT22;16167;48.768;14.984;2022-12-15T07:29:50;-2.20;51.20
29093;DHT22;16167;48.768;14.984;2022-12-15T07:32:19;-2.20;49.20
29093;DHT22;16167;48.768;14.984;2022-12-15T07:34:48;-2.20;48.80
29093;DHT22;16167;48.768;14.984;2022-12-15T07:37:16;-2.10;48.00
29093;DHT22;16167;48.768;14.984;2022-12-15T07:39:45;-2.00;46.70
29093;DHT22;16167;48.768;14.984;2022-12-15T07:42:13;-2.00;39.10
29093;DHT22;16167;48.768;14.984;2022-12-15T07:44:41;-2.00;37.80
29093;DHT22;16167;48.768;14.984;2022-12-15T07:47:09;-1.90;35.30
29093;DHT22;16167;48.768;14.984;2022-12-15T07:49:37;-1.90;39.30
29093;DHT22;16167;48.768;14.984;2022-12-15T07:52:06;-1.90;38.90
29093;DHT22;16167;48.768;14.984;2022-12-15T07:54:34;-1.80;38.40
29093;DHT22;16167;48.768;14.984;2022-12-15T07:57:02;-1.80;23.60
29093;DHT22;16167;48.768;14.984;2022-12-15T07:59:33;-1.80;21.10
29093;DHT22;16167;48.768;14.984;2022-12-15T08:02:01;-1.70;26.90
29093;DHT22;16167;48.768;14.984;2022-12-15T08:04:30;-1.60;27.10
29093;DHT22;16167;48.768;14.984;2022-12-15T08:06:58;-1.50;25.40
29093;DHT22;16167;48.768;14.984;2022-12-15T08:09:27;-1.50;24.10
29093;DHT22;16167;48.768;14.984;2022-12-15T08:11:57;-1.40;21.40
29093;DHT22;16167;48.768;14.984;2022-12-15T08:14:25;-1.40;21.80
29093;DHT22;16167;48.768;14.984;2022-12-15T08:16:54;-1.40;13.50
29093;DHT22;16167;48.768;14.984;2022-12-15T08:19:22;-1.30;16.00
29093;DHT22;16167;48.768;14.984;2022-12-15T08:21:50;-1.20;15.90
29093;DHT22;16167;48.768;14.984;2022-12-15T08:24:18;-1.00;14.10
29093;DHT22;16167;48.768;14.984;2022-12-15T08:26:47;-1.00;4.50
29093;DHT22;16167;48.768;14.984;2022-12-15T08:29:16;-0.90;5.90
29093;DHT22;16167;48.768;14.984;2022-12-15T08:32:04;-0.80;3.10
29093;DHT22;16167;48.768;14.984;2022-12-15T08:34:33;-0.80;1.00
29093;DHT22;16167;48.768;14.984;2022-12-15T08:37:01;-0.90;1.00
29093;DHT22;16167;48.768;14.984;2022-12-15T08:39:29;-0.80;1.00
29093;DHT22;16167;48.768;14.984;2022-12-15T08:41:58;-0.80;2.50
29093;DHT22;16167;48.768;14.984;2022-12-15T08:44:26;-0.80;3.60
29093;DHT22;16167;48.768;14.984;2022-12-15T08:46:54;-0.70;6.70
29093;DHT22;16167;48.768;14.984;2022-12-15T08:49:22;-0.70;1.00
29093;DHT22;16167;48.768;14.984;2022-12-15T08:51:51;-0.70;1.50
29093;DHT22;16167;48.768;14.984;2022-12-15T08:54:19;-0.60;2.80
29093;DHT22;16167;48.768;14.984;2022-12-15T08:56:47;-0.50;1.00
29093;DHT22;16167;48.768;14.984;2022-12-15T08:59:17;-0.40;1.00
29093;DHT22;16167;48.768;14.984;2022-12-15T09:01:45;-0.30;1.00
29093;DHT22;16167;48.768;14.984;2022-12-15T09:04:14;-0.30;1.00
29093;DHT22;16167;48.768;14.984;2022-12-15T09:06:42;-0.20;1.00
29093;DHT22;16167;48.768;14.984;2022-12-15T09:09:16;-0.10;1.00
29093;DHT22;16167;48.768;14.984;2022-12-15T09:11:44;0.00;1.00
29093;DHT22;16167;48.768;14.984;2022-12-15T09:14:11;0.10;1.00
29093;DHT22;16167;48.768;14.984;2022-12-15T09:16:41;0.20;1.00
29093;DHT22;16167;48.768;14.984;2022-12-15T09:19:09;0.30;1.00
29093;DHT22;16167;48.768;14.984;2022-12-15T09:21:37;0.40;1.00
29093;DHT22;16167;48.768;14.984;2022-12-15T09:24:10;0.40;1.00
29093;DHT22;16167;48.768;14.984;2022-12-15T09:26:47;0.50;1.00
29093;DHT22;16167;48.768;14.984;2022-12-15T09:29:15;0.50;1.00
29093;DHT22;16167;48.768;14.984;2022-12-15T09:31:45;0.60;1.00
29093;DHT22;16167;48.768;14.984;2022-12-15T09:34:13;0.60;1.00
29093;DHT22;16167;48.768;14.984;2022-12-15T09:36:41;0.60;1.00
29093;DHT22;16167;48.768;14.984;2022-12-15T09:39:09;0.60;1.00
29093;DHT22;16167;48.768;14.984;2022-12-15T09:41:38;0.70;1.00
29093;DHT22;16167;48.768;14.984;2022-12-15T09:44:09;0.80;1.00
29093;DHT22;16167;48.768;14.984;2022-12-15T09:46:49;0.90;1.00
29093;DHT22;16167;48.768;14.984;2022-12-15T09:49:21;1.00;1.00
29093;DHT22;16167;48.768;14.984;2022-12-15T09:51:52;1.00;1.00
29093;DHT22;16167;48.768;14.984;2022-12-15T09:54:22;1.10;1.00
29093;DHT22;16167;48.768;14.984;2022-12-15T09:56:53;1.10;1.00
29093;DHT22;16167;48.768;14.984;2022-12-15T09:59:25;1.20;1.00
29093;DHT22;16167;48.768;14.984;2022-12-15T10:01:58;1.20;1.00
29093;DHT22;16167;48.768;14.984;2022-12-15T10:04:31;1.20;1.00
29093;DHT22;16167;48.768;14.984;2022-12-15T10:07:02;1.30;1.00
29093;DHT22;16167;48.768;14.984;2022-12-15T10:09:34;1.40;1.00
29093;DHT22;16167;48.768;14.984;2022-12-15T10:12:04;1.60;1.00
29093;DHT22;16167;48.768;14.984;2022-12-15T10:14:34;1.70;1.00
29093;DHT22;16167;48.768;14.984;2022-12-15T10:17:09;1.80;1.00
29093;DHT22;16167;48.768;14.984;2022-12-15T10:19:44;1.90;1.00
29093;DHT22;16167;48.768;14.984;2022-12-15T10:22:18;2.00;1.00
29093;DHT22;16167;48.768;14.984;2022-12-15T10:24:47;2.10;1.00
29093;DHT22;16167;48.768;14.984;2022-12-15T10:27:40;2.20;1.00
29093;DHT22;16167;48.768;14.984;2022-12-15T10:30:14;2.30;1.00
29093;DHT22;16167;48.768;14.984;2022-12-15T10:32:46;2.40;1.00
29093;DHT22;16167;48.768;14.984;2022-12-15T10:35:17;2.40;1.00
29093;DHT22;16167;48.768;14.984;2022-12-15T10:37:47;2.40;1.00
29093;DHT22;16167;48.768;14.984;2022-12-15T10:40:19;2.40;1.00
29093;DHT22;16167;48.768;14.984;2022-12-15T10:42:52;2.40;1.00
29093;DHT22;16167;48.768;14.984;2022-12-15T10:45:28;2.30;1.00
29093;DHT22;16167;48.768;14.984;2022-12-15T10:47:58;2.20;1.00
29093;DHT22;16167;48.768;14.984;2022-12-15T10:50:28;2.20;1.00
29093;DHT22;16167;48.768;14.984;2022-12-15T10:52:56;2.30;1.00
29093;DHT22;16167;48.768;14.984;2022-12-15T10:55:30;2.40;1.00
29093;DHT22;16167;48.768;14.984;2022-12-15T10:57:58;2.30;1.00
29093;DHT22;16167;48.768;14.984;2022-12-15T11:00:28;2.20;1.00
29093;DHT22;16167;48.768;14.984;2022-12-15T11:02:58;2.10;1.00
29093;DHT22;16167;48.768;14.984;2022-12-15T11:05:27;2.00;1.00
29093;DHT22;16167;48.768;14.984;2022-12-15T11:07:55;2.00;1.00
29093;DHT22;16167;48.768;14.984;2022-12-15T11:10:23;1.90;1.00
29093;DHT22;16167;48.768;14.984;2022-12-15T11:12:57;2.00;1.00
29093;DHT22;16167;48.768;14.984;2022-12-15T11:15:38;2.00;1.00
29093;DHT22;16167;48.768;14.984;2022-12-15T11:18:09;2.00;1.00
29093;DHT22;16167;48.768;14.984;2022-12-15T11:20:38;1.90;1.00
29093;DHT22;16167;48.768;14.984;2022-12-15T11:23:08;1.90;1.00
29093;DHT22;16167;48.768;14.984;2022-12-15T11:25:40;1.90;1.00
29093;DHT22;16167;48.768;14.984;2022-12-15T11:28:13;1.90;1.00
29093;DHT22;16167;48.768;14.984;2022-12-15T11:30:43;1.90;1.00
29093;DHT22;16167;48.768;14.984;2022-12-15T11:33:13;1.90;1.00
29093;DHT22;16167;48.768;14.984;2022-12-15T11:35:46;1.90;1.00
29093;DHT22;16167;48.768;14.984;2022-12-15T11:38:18;1.90;1.00
29093;DHT22;16167;48.768;14.984;2022-12-15T11:40:51;1.90;1.00
29093;DHT22;16167;48.768;14.984;2022-12-15T11:43:32;1.80;1.00
29093;DHT22;16167;48.768;14.984;2022-12-15T11:46:08;1.80;1.00
29093;DHT22;16167;48.768;14.984;2022-12-15T11:48:42;1.70;1.00
29093;DHT22;16167;48.768;14.984;2022-12-15T11:51:16;1.70;1.00
29093;DHT22;16167;48.768;14.984;2022-12-15T11:53:59;1.60;1.00
29093;DHT22;16167;48.768;14.984;2022-12-15T11:56:30;1.60;1.00
29093;DHT22;16167;48.768;14.984;2022-12-15T11:59:22;1.60;1.00
29093;DHT22;16167;48.768;14.984;2022-12-15T12:02:01;1.60;1.00
29093;DHT22;16167;48.768;14.984;2022-12-15T12:04:37;1.60;1.00
29093;DHT22;16167;48.768;14.984;2022-12-15T12:07:07;1.60;1.00
29093;DHT22;16167;48.768;14.984;2022-12-15T12:09:38;1.60;1.00
29093;DHT22;16167;48.768;14.984;2022-12-15T12:12:15;1.60;1.00
29093;DHT22;16167;48.768;14.984;2022-12-15T12:14:47;1.70;1.00
29093;DHT22;16167;48.768;14.984;2022-12-15T12:17:19;1.70;1.00
29093;DHT22;16167;48.768;14.984;2022-12-15T12:19:53;1.70;1.00
29093;DHT22;16167;48.768;14.984;2022-12-15T12:22:23;1.80;1.00
29093;DHT22;16167;48.768;14.984;2022-12-15T12:24:54;1.90;1.00
29093;DHT22;16167;48.768;14.984;2022-12-15T12:27:25;1.90;1.00
29093;DHT22;16167;48.768;14.984;2022-12-15T12:29:57;1.90;1.00
29093;DHT22;16167;48.768;14.984;2022-12-15T12:32:27;2.00;1.00
29093;DHT22;16167;48.768;14.984;2022-12-15T12:35:00;2.00;1.00
29093;DHT22;16167;48.768;14.984;2022-12-15T12:37:50;2.00;1.00
29093;DHT22;16167;48.768;14.984;2022-12-15T12:40:27;2.10;1.00
29093;DHT22;16167;48.768;14.984;2022-12-15T12:42:58;2.00;1.00
29093;DHT22;16167;48.768;14.984;2022-12-15T12:45:28;2.00;1.00
29093;DHT22;16167;48.768;14.984;2022-12-15T12:47:57;1.90;1.00
29093;DHT22;16167;48.768;14.984;2022-12-15T12:50:28;1.90;1.00
29093;DHT22;16167;48.768;14.984;2022-12-15T12:52:57;1.90;1.00
29093;DHT22;16167;48.768;14.984;2022-12-15T12:55:27;1.80;1.00
29093;DHT22;16167;48.768;14.984;2022-12-15T12:57:56;1.80;1.00
29093;DHT22;16167;48.768;14.984;2022-12-15T13:00:25;1.70;1.00
29093;DHT22;16167;48.768;14.984;2022-12-15T13:05:38;1.70;1.00
29093;DHT22;16167;48.768;14.984;2022-12-15T13:08:17;1.70;1.00
29093;DHT22;16167;48.768;14.984;2022-12-15T13:10:46;1.70;1.00
29093;DHT22;16167;48.768;14.984;2022-12-15T13:13:40;1.60;1.00
29093;DHT22;16167;48.768;14.984;2022-12-15T13:16:18;1.60;1.00
29093;DHT22;16167;48.768;14.984;2022-12-15T13:18:59;1.60;1.00
29093;DHT22;16167;48.768;14.984;2022-12-15T13:24:33;1.50;1.00
29093;DHT22;16167;48.768;14.984;2022-12-15T13:27:09;1.40;1.00
29093;DHT22;16167;48.768;14.984;2022-12-15T13:29:55;1.40;1.00
29093;DHT22;16167;48.768;14.984;2022-12-15T13:32:26;1.40;1.00
29093;DHT22;16167;48.768;14.984;2022-12-15T13:34:54;1.40;1.00
29093;DHT22;16167;48.768;14.984;2022-12-15T13:37:40;1.40;1.00
29093;DHT22;16167;48.768;14.984;2022-12-15T13:40:24;1.30;1.00
29093;DHT22;16167;48.768;14.984;2022-12-15T13:42:59;1.20;1.00
29093;DHT22;16167;48.768;14.984;2022-12-15T13:45:45;1.20;1.00
29093;DHT22;16167;48.768;14.984;2022-12-15T13:51:04;1.00;1.00
29093;DHT22;16167;48.768;14.984;2022-12-15T13:53:37;1.00;1.00
29093;DHT22;16167;48.768;14.984;2022-12-15T13:56:17;1.00;1.00
29093;DHT22;16167;48.768;14.984;2022-12-15T13:58:49;1.00;1.00
29093;DHT22;16167;48.768;14.984;2022-12-15T14:01:21;0.90;1.00
29093;DHT22;16167;48.768;14.984;2022-12-15T14:04:01;0.90;1.00
29093;DHT22;16167;48.768;14.984;2022-12-15T14:06:34;0.90;1.00
29093;DHT22;16167;48.768;14.984;2022-12-15T14:09:03;0.80;1.00
29093;DHT22;16167;48.768;14.984;2022-12-15T14:11:33;0.80;1.00
29093;DHT22;16167;48.768;14.984;2022-12-15T14:14:21;0.80;1.00
29093;DHT22;16167;48.768;14.984;2022-12-15T14:16:54;0.70;1.00
29093;DHT22;16167;48.768;14.984;2022-12-15T14:19:24;0.70;1.00
29093;DHT22;16167;48.768;14.984;2022-12-15T14:21:53;0.70;1.00
29093;DHT22;16167;48.768;14.984;2022-12-15T14:24:22;0.60;1.00
29093;DHT22;16167;48.768;14.984;2022-12-15T14:27:08;0.60;1.00
29093;DHT22;16167;48.768;14.984;2022-12-15T14:29:36;0.50;1.00
29093;DHT22;16167;48.768;14.984;2022-12-15T14:32:05;0.50;1.00
29093;DHT22;16167;48.768;14.984;2022-12-15T14:34:34;0.50;1.00
29093;DHT22;16167;48.768;14.984;2022-12-15T14:37:05;0.40;1.00
29093;DHT22;16167;48.768;14.984;2022-12-15T14:39:34;0.30;1.00
29093;DHT22;16167;48.768;14.984;2022-12-15T14:42:04;0.30;1.00
29093;DHT22;16167;48.768;14.984;2022-12-15T14:44:34;0.30;1.00
29093;DHT22;16167;48.768;14.984;2022-12-15T14:47:06;0.30;1.00
29093;DHT22;16167;48.768;14.984;2022-12-15T14:49:37;0.20;1.00
29093;DHT22;16167;48.768;14.984;2022-12-15T14:52:05;0.20;1.00
29093;DHT22;16167;48.768;14.984;2022-12-15T14:54:35;0.20;1.00
29093;DHT22;16167;48.768;14.984;2022-12-15T14:57:10;0.20;1.00
29093;DHT22;16167;48.768;14.984;2022-12-15T14:59:41;0.10;1.30
29093;DHT22;16167;48.768;14.984;2022-12-15T15:02:11;0.10;3.70
29093;DHT22;16167;48.768;14.984;2022-12-15T15:04:39;0.10;6.10
29093;DHT22;16167;48.768;14.984;2022-12-15T15:07:13;0.00;10.60
29093;DHT22;16167;48.768;14.984;2022-12-15T15:09:44;0.00;9.10
29093;DHT22;16167;48.768;14.984;2022-12-15T15:12:13;0.00;10.90
29093;DHT22;16167;48.768;14.984;2022-12-15T15:14:44;-0.10;13.20
29093;DHT22;16167;48.768;14.984;2022-12-15T15:17:20;0.00;11.80
29093;DHT22;16167;48.768;14.984;2022-12-15T15:19:49;0.00;12.70
29093;DHT22;16167;48.768;14.984;2022-12-15T15:22:26;-0.10;13.70
29093;DHT22;16167;48.768;14.984;2022-12-15T15:24:56;-0.10;13.30
29093;DHT22;16167;48.768;14.984;2022-12-15T15:27:25;-0.10;15.20
29093;DHT22;16167;48.768;14.984;2022-12-15T15:30:06;-0.10;15.90
29093;DHT22;16167;48.768;14.984;2022-12-15T15:32:47;-0.10;15.60
29093;DHT22;16167;48.768;14.984;2022-12-15T15:35:16;-0.10;17.70
29093;DHT22;16167;48.768;14.984;2022-12-15T15:37:44;-0.20;16.50
29093;DHT22;16167;48.768;14.984;2022-12-15T15:40:12;-0.10;15.50
29093;DHT22;16167;48.768;14.984;2022-12-15T15:42:43;-0.20;15.10
29093;DHT22;16167;48.768;14.984;2022-12-15T15:45:13;-0.20;14.40
29093;DHT22;16167;48.768;14.984;2022-12-15T15:47:41;-0.20;21.10
29093;DHT22;16167;48.768;14.984;2022-12-15T15:50:12;-0.20;21.80
29093;DHT22;16167;48.768;14.984;2022-12-15T15:52:42;-0.30;22.20
29093;DHT22;16167;48.768;14.984;2022-12-15T15:55:13;-0.30;23.60
29093;DHT22;16167;48.768;14.984;2022-12-15T15:57:41;-0.30;23.70
29093;DHT22;16167;48.768;14.984;2022-12-15T16:00:15;-0.30;25.40
29093;DHT22;16167;48.768;14.984;2022-12-15T16:02:44;-0.30;25.80
29093;DHT22;16167;48.768;14.984;2022-12-15T16:05:13;-0.30;23.20
29093;DHT22;16167;48.768;14.984;2022-12-15T16:07:41;-0.30;24.90
29093;DHT22;16167;48.768;14.984;2022-12-15T16:10:10;-0.40;23.40
29093;DHT22;16167;48.768;14.984;2022-12-15T16:12:40;-0.40;22.30
29093;DHT22;16167;48.768;14.984;2022-12-15T16:15:18;-0.40;25.50